sensor_id;sensor_type;location;lat;lon;timestamp;P1;durP1;ratioP1;P2;durP2;ratioP2
9106;SDS011;4589;48.690;8.952;2023-04-03T00:01:02;5.00;;;4.10;;
9106;SDS011;4589;48.690;8.952;2023-04-03T00:03:28;4.73;;;4.00;;
9106;SDS011;4589;48.690;8.952;2023-04-03T00:05:54;5.73;;;4.17;;
9106;SDS011;4589;48.690;8.952;2023-04-03T00:08:20;3.90;;;3.50;;
9106;SDS011;4589;48.690;8.952;2023-04-03T00:10:46;6.00;;;4.50;;
9106;SDS011;4589;48.690;8.952;2023-04-03T00:13:12;5.53;;;4.45;;
9106;SDS011;4589;48.690;8.952;2023-04-03T00:15:38;5.77;;;4.10;;
9106;SDS011;4589;48.690;8.952;2023-04-03T00:18:05;4.40;;;4.00;;
9106;SDS011;4589;48.690;8.952;2023-04-03T00:20:31;3.77;;;3.47;;
9106;SDS011;4589;48.690;8.952;2023-04-03T00:22:58;6.93;;;4.47;;
9106;SDS011;4589;48.690;8.952;2023-04-03T00:25:23;4.50;;;4.10;;
9106;SDS011;4589;48.690;8.952;2023-04-03T00:27:49;7.57;;;4.00;;
9106;SDS011;4589;48.690;8.952;2023-04-03T00:30:17;4.60;;;3.90;;
9106;SDS011;4589;48.690;8.952;2023-04-03T00:32:44;6.10;;;4.43;;
9106;SDS011;4589;48.690;8.952;2023-04-03T00:35:10;6.37;;;4.10;;
9106;SDS011;4589;48.690;8.952;2023-04-03T00:37:36;4.67;;;3.90;;
9106;SDS011;4589;48.690;8.952;2023-04-03T00:40:02;4.63;;;4.17;;
9106;SDS011;4589;48.690;8.952;2023-04-03T00:42:29;5.07;;;4.00;;
9106;SDS011;4589;48.690;8.952;2023-04-03T00:47:21;6.87;;;4.03;;
9106;SDS011;4589;48.690;8.952;2023-04-03T00:49:47;5.15;;;4.35;;
9106;SDS011;4589;48.690;8.952;2023-04-03T00:52:14;4.90;;;4.33;;
9106;SDS011;4589;48.690;8.952;2023-04-03T00:54:42;5.60;;;4.30;;
9106;SDS011;4589;48.690;8.952;2023-04-03T00:57:10;4.87;;;3.90;;
9106;SDS011;4589;48.690;8.952;2023-04-03T00:59:41;7.33;;;5.30;;
9106;SDS011;4589;48.690;8.952;2023-04-03T01:02:09;6.80;;;4.40;;
9106;SDS011;4589;48.690;8.952;2023-04-03T01:04:36;4.97;;;3.80;;
9106;SDS011;4589;48.690;8.952;2023-04-03T01:07:05;4.90;;;4.05;;
9106;SDS011;4589;48.690;8.952;2023-04-03T01:09:33;5.80;;;4.37;;
9106;SDS011;4589;48.690;8.952;2023-04-03T01:14:50;6.20;;;3.97;;
9106;SDS011;4589;48.690;8.952;2023-04-03T01:22:52;6.80;;;4.90;;
9106;SDS011;4589;48.690;8.952;2023-04-03T01:25:23;5.23;;;4.50;;
9106;SDS011;4589;48.690;8.952;2023-04-03T01:27:49;3.90;;;3.50;;
9106;SDS011;4589;48.690;8.952;2023-04-03T01:30:17;4.40;;;3.70;;
9106;SDS011;4589;48.690;8.952;2023-04-03T01:32:44;6.35;;;4.30;;
9106;SDS011;4589;48.690;8.952;2023-04-03T01:35:10;7.77;;;4.40;;
9106;SDS011;4589;48.690;8.952;2023-04-03T01:37:36;8.30;;;3.90;;
9106;SDS011;4589;48.690;8.952;2023-04-03T01:40:02;6.60;;;4.37;;
9106;SDS011;4589;48.690;8.952;2023-04-03T01:42:29;4.60;;;4.07;;
9106;SDS011;4589;48.690;8.952;2023-04-03T01:44:55;6.73;;;4.37;;
9106;SDS011;4589;48.690;8.952;2023-04-03T01:47:21;8.77;;;4.63;;
9106;SDS011;4589;48.690;8.952;2023-04-03T01:49:47;4.97;;;4.07;;
9106;SDS011;4589;48.690;8.952;2023-04-03T01:52:13;5.63;;;4.40;;
9106;SDS011;4589;48.690;8.952;2023-04-03T01:54:39;8.83;;;4.07;;
9106;SDS011;4589;48.690;8.952;2023-04-03T01:57:05;4.00;;;3.60;;
9106;SDS011;4589;48.690;8.952;2023-04-03T01:59:31;6.47;;;4.20;;
9106;SDS011;4589;48.690;8.952;2023-04-03T02:01:57;5.47;;;4.33;;
9106;SDS011;4589;48.690;8.952;2023-04-03T02:04:23;5.27;;;4.30;;
9106;SDS011;4589;48.690;8.952;2023-04-03T02:06:49;6.60;;;4.70;;
9106;SDS011;4589;48.690;8.952;2023-04-03T02:09:15;5.10;;;4.43;;
9106;SDS011;4589;48.690;8.952;2023-04-03T02:11:41;5.20;;;4.27;;
9106;SDS011;4589;48.690;8.952;2023-04-03T02:14:07;5.53;;;4.00;;
9106;SDS011;4589;48.690;8.952;2023-04-03T02:16:33;4.83;;;4.30;;
9106;SDS011;4589;48.690;8.952;2023-04-03T02:18:59;5.70;;;4.50;;
9106;SDS011;4589;48.690;8.952;2023-04-03T02:21:25;6.60;;;4.53;;
9106;SDS011;4589;48.690;8.952;2023-04-03T02:23:51;5.70;;;4.33;;
9106;SDS011;4589;48.690;8.952;2023-04-03T02:26:17;6.27;;;4.43;;
9106;SDS011;4589;48.690;8.952;2023-04-03T02:28:43;4.30;;;3.90;;
9106;SDS011;4589;48.690;8.952;2023-04-03T02:31:09;4.83;;;4.30;;
9106;SDS011;4589;48.690;8.952;2023-04-03T02:33:35;4.27;;;3.87;;
9106;SDS011;4589;48.690;8.952;2023-04-03T02:36:02;5.00;;;4.50;;
9106;SDS011;4589;48.690;8.952;2023-04-03T02:38:29;4.10;;;3.70;;
9106;SDS011;4589;48.690;8.952;2023-04-03T02:41:02;4.70;;;3.70;;
9106;SDS011;4589;48.690;8.952;2023-04-03T02:43:30;4.13;;;3.72;;
9106;SDS011;4589;48.690;8.952;2023-04-03T02:45:56;5.50;;;3.83;;
9106;SDS011;4589;48.690;8.952;2023-04-03T02:48:22;5.93;;;4.60;;
9106;SDS011;4589;48.690;8.952;2023-04-03T02:50:48;6.10;;;4.10;;
9106;SDS011;4589;48.690;8.952;2023-04-03T02:53:14;6.37;;;4.63;;
9106;SDS011;4589;48.690;8.952;2023-04-03T02:55:41;5.40;;;4.20;;
9106;SDS011;4589;48.690;8.952;2023-04-03T02:58:07;5.50;;;4.18;;
9106;SDS011;4589;48.690;8.952;2023-04-03T03:00:33;5.65;;;4.30;;
9106;SDS011;4589;48.690;8.952;2023-04-03T03:02:59;8.73;;;4.73;;
9106;SDS011;4589;48.690;8.952;2023-04-03T03:05:25;5.47;;;4.03;;
9106;SDS011;4589;48.690;8.952;2023-04-03T03:07:52;6.33;;;4.80;;
9106;SDS011;4589;48.690;8.952;2023-04-03T03:10:18;6.03;;;5.00;;
9106;SDS011;4589;48.690;8.952;2023-04-03T03:12:44;4.50;;;4.10;;
9106;SDS011;4589;48.690;8.952;2023-04-03T03:15:10;4.22;;;3.75;;
9106;SDS011;4589;48.690;8.952;2023-04-03T03:17:36;6.00;;;4.13;;
9106;SDS011;4589;48.690;8.952;2023-04-03T03:20:03;5.23;;;4.10;;
9106;SDS011;4589;48.690;8.952;2023-04-03T03:22:29;4.70;;;4.20;;
9106;SDS011;4589;48.690;8.952;2023-04-03T03:24:55;6.33;;;4.53;;
9106;SDS011;4589;48.690;8.952;2023-04-03T03:27:21;5.20;;;4.30;;
9106;SDS011;4589;48.690;8.952;2023-04-03T03:29:48;5.30;;;4.40;;
9106;SDS011;4589;48.690;8.952;2023-04-03T03:32:15;6.30;;;5.13;;
9106;SDS011;4589;48.690;8.952;2023-04-03T03:34:41;4.53;;;4.10;;
9106;SDS011;4589;48.690;8.952;2023-04-03T03:37:06;6.40;;;4.60;;
9106;SDS011;4589;48.690;8.952;2023-04-03T03:39:32;6.97;;;4.77;;
9106;SDS011;4589;48.690;8.952;2023-04-03T03:41:58;5.13;;;4.30;;
9106;SDS011;4589;48.690;8.952;2023-04-03T03:44:24;9.32;;;4.40;;
9106;SDS011;4589;48.690;8.952;2023-04-03T03:46:50;5.03;;;3.65;;
9106;SDS011;4589;48.690;8.952;2023-04-03T03:49:16;4.93;;;4.10;;
9106;SDS011;4589;48.690;8.952;2023-04-03T03:51:42;5.30;;;4.17;;
9106;SDS011;4589;48.690;8.952;2023-04-03T03:54:09;5.30;;;3.83;;
9106;SDS011;4589;48.690;8.952;2023-04-03T03:56:34;6.47;;;4.43;;
9106;SDS011;4589;48.690;8.952;2023-04-03T03:59:00;5.37;;;3.97;;
9106;SDS011;4589;48.690;8.952;2023-04-03T04:01:26;6.10;;;4.30;;
9106;SDS011;4589;48.690;8.952;2023-04-03T04:03:53;4.10;;;3.67;;
9106;SDS011;4589;48.690;8.952;2023-04-03T04:06:19;6.28;;;4.30;;
9106;SDS011;4589;48.690;8.952;2023-04-03T04:08:46;4.13;;;3.67;;
9106;SDS011;4589;48.690;8.952;2023-04-03T04:11:12;4.40;;;4.00;;
9106;SDS011;4589;48.690;8.952;2023-04-03T04:13:38;4.70;;;4.07;;
9106;SDS011;4589;48.690;8.952;2023-04-03T04:16:04;8.10;;;4.30;;
9106;SDS011;4589;48.690;8.952;2023-04-03T04:18:30;6.80;;;4.10;;
9106;SDS011;4589;48.690;8.952;2023-04-03T04:20:56;5.20;;;4.07;;
9106;SDS011;4589;48.690;8.952;2023-04-03T04:23:22;5.50;;;4.93;;
9106;SDS011;4589;48.690;8.952;2023-04-03T04:25:48;4.87;;;4.23;;
9106;SDS011;4589;48.690;8.952;2023-04-03T04:28:15;6.50;;;4.88;;
9106;SDS011;4589;48.690;8.952;2023-04-03T04:30:41;4.47;;;3.83;;
9106;SDS011;4589;48.690;8.952;2023-04-03T04:33:07;4.27;;;3.67;;
9106;SDS011;4589;48.690;8.952;2023-04-03T04:35:33;6.77;;;4.60;;
9106;SDS011;4589;48.690;8.952;2023-04-03T04:38:00;4.80;;;3.80;;
9106;SDS011;4589;48.690;8.952;2023-04-03T04:40:26;4.38;;;3.97;;
9106;SDS011;4589;48.690;8.952;2023-04-03T04:42:52;4.88;;;4.28;;
9106;SDS011;4589;48.690;8.952;2023-04-03T04:45:18;5.17;;;4.00;;
9106;SDS011;4589;48.690;8.952;2023-04-03T04:47:44;4.57;;;3.93;;
9106;SDS011;4589;48.690;8.952;2023-04-03T04:50:10;4.97;;;4.30;;
9106;SDS011;4589;48.690;8.952;2023-04-03T04:52:36;3.93;;;3.53;;
9106;SDS011;4589;48.690;8.952;2023-04-03T04:55:02;5.40;;;4.03;;
9106;SDS011;4589;48.690;8.952;2023-04-03T04:57:29;5.10;;;4.03;;
9106;SDS011;4589;48.690;8.952;2023-04-03T04:59:55;4.80;;;4.33;;
9106;SDS011;4589;48.690;8.952;2023-04-03T05:02:20;8.47;;;4.67;;
9106;SDS011;4589;48.690;8.952;2023-04-03T05:04:47;6.88;;;4.88;;
9106;SDS011;4589;48.690;8.952;2023-04-03T05:07:15;5.47;;;4.40;;
9106;SDS011;4589;48.690;8.952;2023-04-03T05:09:41;4.37;;;3.73;;
9106;SDS011;4589;48.690;8.952;2023-04-03T05:12:07;4.13;;;3.80;;
9106;SDS011;4589;48.690;8.952;2023-04-03T05:14:33;6.03;;;4.15;;
9106;SDS011;4589;48.690;8.952;2023-04-03T05:16:59;6.03;;;4.40;;
9106;SDS011;4589;48.690;8.952;2023-04-03T05:19:25;4.30;;;3.90;;
9106;SDS011;4589;48.690;8.952;2023-04-03T05:21:51;5.40;;;4.27;;
9106;SDS011;4589;48.690;8.952;2023-04-03T05:24:17;7.00;;;4.47;;
9106;SDS011;4589;48.690;8.952;2023-04-03T05:26:43;4.78;;;4.03;;
9106;SDS011;4589;48.690;8.952;2023-04-03T05:29:09;5.03;;;4.05;;
9106;SDS011;4589;48.690;8.952;2023-04-03T05:31:35;6.00;;;3.83;;
9106;SDS011;4589;48.690;8.952;2023-04-03T05:34:01;3.90;;;3.57;;
9106;SDS011;4589;48.690;8.952;2023-04-03T05:36:27;3.10;;;2.80;;
9106;SDS011;4589;48.690;8.952;2023-04-03T05:38:53;5.30;;;2.95;;
9106;SDS011;4589;48.690;8.952;2023-04-03T05:41:21;3.60;;;3.30;;
9106;SDS011;4589;48.690;8.952;2023-04-03T05:43:47;4.73;;;3.30;;
9106;SDS011;4589;48.690;8.952;2023-04-03T05:46:14;3.33;;;3.00;;
9106;SDS011;4589;48.690;8.952;2023-04-03T05:48:41;4.03;;;3.30;;
9106;SDS011;4589;48.690;8.952;2023-04-03T05:51:09;5.70;;;3.30;;
9106;SDS011;4589;48.690;8.952;2023-04-03T05:53:40;4.33;;;3.07;;
9106;SDS011;4589;48.690;8.952;2023-04-03T05:56:07;4.30;;;3.60;;
9106;SDS011;4589;48.690;8.952;2023-04-03T05:58:33;2.80;;;2.40;;
9106;SDS011;4589;48.690;8.952;2023-04-03T06:00:59;3.37;;;2.90;;
9106;SDS011;4589;48.690;8.952;2023-04-03T06:03:25;5.60;;;3.03;;
9106;SDS011;4589;48.690;8.952;2023-04-03T06:05:51;3.47;;;3.17;;
9106;SDS011;4589;48.690;8.952;2023-04-03T06:08:17;4.83;;;2.90;;
9106;SDS011;4589;48.690;8.952;2023-04-03T06:10:43;3.83;;;3.43;;
9106;SDS011;4589;48.690;8.952;2023-04-03T06:13:09;4.17;;;3.10;;
9106;SDS011;4589;48.690;8.952;2023-04-03T06:15:36;3.10;;;2.80;;
9106;SDS011;4589;48.690;8.952;2023-04-03T06:18:03;3.23;;;2.93;;
9106;SDS011;4589;48.690;8.952;2023-04-03T06:20:29;3.50;;;3.20;;
9106;SDS011;4589;48.690;8.952;2023-04-03T06:22:56;3.60;;;3.30;;
9106;SDS011;4589;48.690;8.952;2023-04-03T06:25:22;4.63;;;2.93;;
9106;SDS011;4589;48.690;8.952;2023-04-03T06:27:48;3.50;;;2.80;;
9106;SDS011;4589;48.690;8.952;2023-04-03T06:30:14;3.63;;;3.00;;
9106;SDS011;4589;48.690;8.952;2023-04-03T06:32:40;3.70;;;3.20;;
9106;SDS011;4589;48.690;8.952;2023-04-03T06:35:06;5.50;;;3.83;;
9106;SDS011;4589;48.690;8.952;2023-04-03T06:37:32;4.10;;;3.17;;
9106;SDS011;4589;48.690;8.952;2023-04-03T06:39:58;4.60;;;3.23;;
9106;SDS011;4589;48.690;8.952;2023-04-03T06:42:25;5.10;;;4.10;;
9106;SDS011;4589;48.690;8.952;2023-04-03T06:44:51;4.70;;;3.60;;
9106;SDS011;4589;48.690;8.952;2023-04-03T06:47:17;4.23;;;3.43;;
9106;SDS011;4589;48.690;8.952;2023-04-03T06:49:43;6.53;;;3.70;;
9106;SDS011;4589;48.690;8.952;2023-04-03T06:52:09;3.70;;;3.40;;
9106;SDS011;4589;48.690;8.952;2023-04-03T06:54:38;3.77;;;3.47;;
9106;SDS011;4589;48.690;8.952;2023-04-03T06:57:04;4.13;;;3.80;;
9106;SDS011;4589;48.690;8.952;2023-04-03T06:59:30;4.03;;;3.73;;
9106;SDS011;4589;48.690;8.952;2023-04-03T07:01:56;3.40;;;3.10;;
9106;SDS011;4589;48.690;8.952;2023-04-03T07:04:24;4.17;;;3.10;;
9106;SDS011;4589;48.690;8.952;2023-04-03T07:06:51;3.40;;;3.10;;
9106;SDS011;4589;48.690;8.952;2023-04-03T07:09:17;4.37;;;2.90;;
9106;SDS011;4589;48.690;8.952;2023-04-03T07:11:43;6.10;;;2.83;;
9106;SDS011;4589;48.690;8.952;2023-04-03T07:14:10;3.47;;;3.13;;
9106;SDS011;4589;48.690;8.952;2023-04-03T07:16:36;4.83;;;3.73;;
9106;SDS011;4589;48.690;8.952;2023-04-03T07:19:02;5.70;;;3.73;;
9106;SDS011;4589;48.690;8.952;2023-04-03T07:21:28;4.63;;;4.23;;
9106;SDS011;4589;48.690;8.952;2023-04-03T07:23:54;5.90;;;3.60;;
9106;SDS011;4589;48.690;8.952;2023-04-03T07:26:21;4.40;;;3.90;;
9106;SDS011;4589;48.690;8.952;2023-04-03T07:28:48;4.57;;;3.33;;
9106;SDS011;4589;48.690;8.952;2023-04-03T07:31:15;5.30;;;3.83;;
9106;SDS011;4589;48.690;8.952;2023-04-03T07:33:42;6.13;;;3.63;;
9106;SDS011;4589;48.690;8.952;2023-04-03T07:36:09;4.20;;;3.80;;
9106;SDS011;4589;48.690;8.952;2023-04-03T07:38:36;4.57;;;3.30;;
9106;SDS011;4589;48.690;8.952;2023-04-03T07:41:02;5.90;;;3.57;;
9106;SDS011;4589;48.690;8.952;2023-04-03T07:43:28;4.67;;;3.57;;
9106;SDS011;4589;48.690;8.952;2023-04-03T07:45:54;3.70;;;3.40;;
9106;SDS011;4589;48.690;8.952;2023-04-03T07:48:21;3.40;;;3.10;;
9106;SDS011;4589;48.690;8.952;2023-04-03T07:50:47;3.50;;;3.20;;
9106;SDS011;4589;48.690;8.952;2023-04-03T07:53:13;5.93;;;3.40;;
9106;SDS011;4589;48.690;8.952;2023-04-03T07:55:39;3.93;;;3.53;;
9106;SDS011;4589;48.690;8.952;2023-04-03T07:58:09;4.40;;;3.13;;
9106;SDS011;4589;48.690;8.952;2023-04-03T08:00:36;3.70;;;2.80;;
9106;SDS011;4589;48.690;8.952;2023-04-03T08:03:02;5.20;;;3.47;;
9106;SDS011;4589;48.690;8.952;2023-04-03T08:05:28;8.43;;;3.40;;
9106;SDS011;4589;48.690;8.952;2023-04-03T08:07:54;8.03;;;3.90;;
9106;SDS011;4589;48.690;8.952;2023-04-03T08:10:21;3.73;;;2.90;;
9106;SDS011;4589;48.690;8.952;2023-04-03T08:12:47;3.67;;;3.37;;
9106;SDS011;4589;48.690;8.952;2023-04-03T08:15:13;3.50;;;3.20;;
9106;SDS011;4589;48.690;8.952;2023-04-03T08:17:39;3.40;;;3.10;;
9106;SDS011;4589;48.690;8.952;2023-04-03T08:20:06;3.80;;;2.70;;
9106;SDS011;4589;48.690;8.952;2023-04-03T08:22:39;7.03;;;3.07;;
9106;SDS011;4589;48.690;8.952;2023-04-03T08:25:05;3.30;;;2.90;;
9106;SDS011;4589;48.690;8.952;2023-04-03T08:27:31;5.47;;;3.20;;
9106;SDS011;4589;48.690;8.952;2023-04-03T08:29:57;3.40;;;3.10;;
9106;SDS011;4589;48.690;8.952;2023-04-03T08:32:23;4.00;;;2.83;;
9106;SDS011;4589;48.690;8.952;2023-04-03T08:34:49;4.50;;;3.03;;
9106;SDS011;4589;48.690;8.952;2023-04-03T08:37:15;3.50;;;3.03;;
9106;SDS011;4589;48.690;8.952;2023-04-03T08:39:42;3.20;;;3.00;;
9106;SDS011;4589;48.690;8.952;2023-04-03T08:42:15;3.30;;;3.00;;
9106;SDS011;4589;48.690;8.952;2023-04-03T08:47:28;3.60;;;3.30;;
9106;SDS011;4589;48.690;8.952;2023-04-03T08:50:16;6.07;;;3.27;;
9106;SDS011;4589;48.690;8.952;2023-04-03T08:52:45;4.23;;;3.30;;
9106;SDS011;4589;48.690;8.952;2023-04-03T08:55:27;3.67;;;3.13;;
9106;SDS011;4589;48.690;8.952;2023-04-03T09:00:26;3.53;;;2.80;;
9106;SDS011;4589;48.690;8.952;2023-04-03T09:02:59;3.50;;;2.83;;
9106;SDS011;4589;48.690;8.952;2023-04-03T09:08:03;3.43;;;3.13;;
9106;SDS011;4589;48.690;8.952;2023-04-03T09:10:35;5.93;;;3.20;;
9106;SDS011;4589;48.690;8.952;2023-04-03T09:13:18;3.80;;;2.80;;
9106;SDS011;4589;48.690;8.952;2023-04-03T09:16:02;6.67;;;3.33;;
9106;SDS011;4589;48.690;8.952;2023-04-03T09:18:43;3.30;;;3.00;;
9106;SDS011;4589;48.690;8.952;2023-04-03T09:21:27;4.23;;;3.60;;
9106;SDS011;4589;48.690;8.952;2023-04-03T09:24:08;3.60;;;3.20;;
9106;SDS011;4589;48.690;8.952;2023-04-03T09:26:40;3.00;;;2.80;;
9106;SDS011;4589;48.690;8.952;2023-04-03T09:29:08;3.30;;;2.87;;
9106;SDS011;4589;48.690;8.952;2023-04-03T09:31:39;3.00;;;2.80;;
9106;SDS011;4589;48.690;8.952;2023-04-03T09:34:10;6.27;;;3.60;;
9106;SDS011;4589;48.690;8.952;2023-04-03T09:36:47;5.60;;;3.60;;
9106;SDS011;4589;48.690;8.952;2023-04-03T09:39:24;4.53;;;3.77;;
9106;SDS011;4589;48.690;8.952;2023-04-03T09:42:02;4.13;;;3.07;;
9106;SDS011;4589;48.690;8.952;2023-04-03T09:46:56;4.27;;;3.47;;
9106;SDS011;4589;48.690;8.952;2023-04-03T09:49:22;3.50;;;3.20;;
9106;SDS011;4589;48.690;8.952;2023-04-03T09:51:48;5.93;;;3.23;;
9106;SDS011;4589;48.690;8.952;2023-04-03T09:56:56;6.07;;;3.70;;
9106;SDS011;4589;48.690;8.952;2023-04-03T09:59:31;4.93;;;3.63;;
9106;SDS011;4589;48.690;8.952;2023-04-03T10:01:58;3.53;;;3.20;;
9106;SDS011;4589;48.690;8.952;2023-04-03T10:04:36;7.43;;;3.30;;
9106;SDS011;4589;48.690;8.952;2023-04-03T10:07:04;3.50;;;3.10;;
9106;SDS011;4589;48.690;8.952;2023-04-03T10:09:58;3.37;;;3.07;;
9106;SDS011;4589;48.690;8.952;2023-04-03T10:12:45;4.23;;;3.83;;
9106;SDS011;4589;48.690;8.952;2023-04-03T10:15:14;4.13;;;3.23;;
9106;SDS011;4589;48.690;8.952;2023-04-03T10:17:57;4.87;;;3.20;;
9106;SDS011;4589;48.690;8.952;2023-04-03T10:20:33;3.93;;;3.40;;
9106;SDS011;4589;48.690;8.952;2023-04-03T10:25:55;3.93;;;3.63;;
9106;SDS011;4589;48.690;8.952;2023-04-03T10:34:24;5.47;;;3.00;;
9106;SDS011;4589;48.690;8.952;2023-04-03T10:39:57;6.83;;;3.10;;
9106;SDS011;4589;48.690;8.952;2023-04-03T10:47:57;3.27;;;2.97;;
9106;SDS011;4589;48.690;8.952;2023-04-03T10:56:16;4.43;;;2.80;;
9106;SDS011;4589;48.690;8.952;2023-04-03T10:58:59;3.53;;;3.23;;
9106;SDS011;4589;48.690;8.952;2023-04-03T11:01:39;5.27;;;2.83;;
9106;SDS011;4589;48.690;8.952;2023-04-03T11:04:07;3.70;;;2.67;;
9106;SDS011;4589;48.690;8.952;2023-04-03T11:09:33;4.50;;;2.67;;
9106;SDS011;4589;48.690;8.952;2023-04-03T11:12:13;2.70;;;2.50;;
9106;SDS011;4589;48.690;8.952;2023-04-03T11:14:50;2.97;;;2.37;;
9106;SDS011;4589;48.690;8.952;2023-04-03T11:20:05;3.43;;;2.90;;
9106;SDS011;4589;48.690;8.952;2023-04-03T11:23:00;2.50;;;2.30;;
9106;SDS011;4589;48.690;8.952;2023-04-03T11:25:48;3.20;;;2.90;;
9106;SDS011;4589;48.690;8.952;2023-04-03T11:28:17;2.93;;;2.50;;
9106;SDS011;4589;48.690;8.952;2023-04-03T11:30:45;6.17;;;3.33;;
9106;SDS011;4589;48.690;8.952;2023-04-03T11:33:45;5.00;;;2.77;;
9106;SDS011;4589;48.690;8.952;2023-04-03T11:36:24;4.27;;;2.43;;
9106;SDS011;4589;48.690;8.952;2023-04-03T11:38:52;3.50;;;2.80;;
9106;SDS011;4589;48.690;8.952;2023-04-03T11:41:25;3.97;;;3.03;;
9106;SDS011;4589;48.690;8.952;2023-04-03T11:44:01;4.70;;;3.20;;
9106;SDS011;4589;48.690;8.952;2023-04-03T12:05:54;4.60;;;2.77;;
9106;SDS011;4589;48.690;8.952;2023-04-03T12:11:15;4.57;;;2.80;;
9106;SDS011;4589;48.690;8.952;2023-04-03T12:29:23;2.93;;;2.63;;
9106;SDS011;4589;48.690;8.952;2023-04-03T12:37:07;3.40;;;2.90;;
9106;SDS011;4589;48.690;8.952;2023-04-03T12:39:55;6.00;;;3.27;;
9106;SDS011;4589;48.690;8.952;2023-04-03T12:45:16;2.43;;;2.23;;
9106;SDS011;4589;48.690;8.952;2023-04-03T12:47:45;2.60;;;2.33;;
9106;SDS011;4589;48.690;8.952;2023-04-03T12:50:24;6.47;;;2.63;;
9106;SDS011;4589;48.690;8.952;2023-04-03T12:53:05;3.30;;;2.50;;
9106;SDS011;4589;48.690;8.952;2023-04-03T12:55:36;3.20;;;2.90;;
9106;SDS011;4589;48.690;8.952;2023-04-03T12:58:15;2.57;;;2.33;;
9106;SDS011;4589;48.690;8.952;2023-04-03T13:01:04;2.83;;;2.57;;
9106;SDS011;4589;48.690;8.952;2023-04-03T13:03:36;3.30;;;2.63;;
9106;SDS011;4589;48.690;8.952;2023-04-03T13:06:05;2.50;;;2.30;;
9106;SDS011;4589;48.690;8.952;2023-04-03T13:08:31;2.37;;;2.17;;
9106;SDS011;4589;48.690;8.952;2023-04-03T13:11:01;6.97;;;3.23;;
9106;SDS011;4589;48.690;8.952;2023-04-03T13:13:31;4.23;;;2.50;;
9106;SDS011;4589;48.690;8.952;2023-04-03T13:15:57;2.93;;;2.33;;
9106;SDS011;4589;48.690;8.952;2023-04-03T13:18:23;2.27;;;2.07;;
9106;SDS011;4589;48.690;8.952;2023-04-03T13:20:51;4.10;;;2.43;;
9106;SDS011;4589;48.690;8.952;2023-04-03T13:23:19;2.60;;;2.40;;
9106;SDS011;4589;48.690;8.952;2023-04-03T13:25:45;3.93;;;2.47;;
9106;SDS011;4589;48.690;8.952;2023-04-03T13:28:13;4.27;;;2.53;;
9106;SDS011;4589;48.690;8.952;2023-04-03T13:33:31;2.63;;;2.43;;
9106;SDS011;4589;48.690;8.952;2023-04-03T13:38:33;3.20;;;2.53;;
9106;SDS011;4589;48.690;8.952;2023-04-03T13:41:02;2.50;;;2.27;;
9106;SDS011;4589;48.690;8.952;2023-04-03T13:43:49;5.20;;;2.40;;
9106;SDS011;4589;48.690;8.952;2023-04-03T13:48:42;3.90;;;2.87;;
9106;SDS011;4589;48.690;8.952;2023-04-03T13:54:21;3.03;;;2.67;;
9106;SDS011;4589;48.690;8.952;2023-04-03T13:56:38;5.50;;;2.73;;
9106;SDS011;4589;48.690;8.952;2023-04-03T14:01:42;3.03;;;2.60;;
9106;SDS011;4589;48.690;8.952;2023-04-03T14:04:12;6.53;;;2.40;;
9106;SDS011;4589;48.690;8.952;2023-04-03T14:06:46;2.97;;;2.60;;
9106;SDS011;4589;48.690;8.952;2023-04-03T14:09:13;3.20;;;2.20;;
9106;SDS011;4589;48.690;8.952;2023-04-03T14:11:40;3.40;;;2.50;;
9106;SDS011;4589;48.690;8.952;2023-04-03T14:14:40;2.97;;;2.43;;
9106;SDS011;4589;48.690;8.952;2023-04-03T14:17:02;2.30;;;2.10;;
9106;SDS011;4589;48.690;8.952;2023-04-03T14:19:35;4.30;;;2.53;;
9106;SDS011;4589;48.690;8.952;2023-04-03T14:22:10;3.33;;;2.60;;
9106;SDS011;4589;48.690;8.952;2023-04-03T14:24:39;3.40;;;2.23;;
9106;SDS011;4589;48.690;8.952;2023-04-03T14:27:09;3.30;;;2.60;;
9106;SDS011;4589;48.690;8.952;2023-04-03T14:29:45;2.80;;;2.60;;
9106;SDS011;4589;48.690;8.952;2023-04-03T14:32:12;3.27;;;2.47;;
9106;SDS011;4589;48.690;8.952;2023-04-03T14:34:39;2.63;;;2.43;;
9106;SDS011;4589;48.690;8.952;2023-04-03T14:37:09;3.67;;;2.60;;
9106;SDS011;4589;48.690;8.952;2023-04-03T14:39:36;10.83;;;4.33;;
9106;SDS011;4589;48.690;8.952;2023-04-03T14:42:02;4.50;;;3.13;;
9106;SDS011;4589;48.690;8.952;2023-04-03T14:44:28;4.00;;;2.73;;
9106;SDS011;4589;48.690;8.952;2023-04-03T14:46:54;4.53;;;2.70;;
9106;SDS011;4589;48.690;8.952;2023-04-03T14:49:22;4.77;;;2.97;;
9106;SDS011;4589;48.690;8.952;2023-04-03T14:51:50;3.73;;;3.27;;
9106;SDS011;4589;48.690;8.952;2023-04-03T14:54:18;3.70;;;2.87;;
9106;SDS011;4589;48.690;8.952;2023-04-03T14:56:50;3.07;;;2.77;;
9106;SDS011;4589;48.690;8.952;2023-04-03T14:59:16;2.73;;;2.30;;
9106;SDS011;4589;48.690;8.952;2023-04-03T15:01:44;2.87;;;2.63;;
9106;SDS011;4589;48.690;8.952;2023-04-03T15:04:12;2.90;;;2.63;;
9106;SDS011;4589;48.690;8.952;2023-04-03T15:06:42;2.80;;;2.50;;
9106;SDS011;4589;48.690;8.952;2023-04-03T15:09:15;3.37;;;2.50;;
9106;SDS011;4589;48.690;8.952;2023-04-03T15:11:49;3.47;;;2.90;;
9106;SDS011;4589;48.690;8.952;2023-04-03T15:14:15;4.47;;;3.60;;
9106;SDS011;4589;48.690;8.952;2023-04-03T15:16:41;2.97;;;2.67;;
9106;SDS011;4589;48.690;8.952;2023-04-03T15:19:07;4.13;;;2.43;;
9106;SDS011;4589;48.690;8.952;2023-04-03T15:21:33;3.20;;;2.90;;
9106;SDS011;4589;48.690;8.952;2023-04-03T15:23:58;6.40;;;2.80;;
9106;SDS011;4589;48.690;8.952;2023-04-03T15:26:24;3.90;;;2.70;;
9106;SDS011;4589;48.690;8.952;2023-04-03T15:28:50;5.80;;;2.83;;
9106;SDS011;4589;48.690;8.952;2023-04-03T15:31:16;3.23;;;2.93;;
9106;SDS011;4589;48.690;8.952;2023-04-03T15:33:42;3.00;;;2.20;;
9106;SDS011;4589;48.690;8.952;2023-04-03T15:36:07;3.13;;;2.50;;
9106;SDS011;4589;48.690;8.952;2023-04-03T15:38:33;4.57;;;2.43;;
9106;SDS011;4589;48.690;8.952;2023-04-03T15:41:00;7.30;;;4.00;;
9106;SDS011;4589;48.690;8.952;2023-04-03T15:43:26;6.50;;;2.73;;
9106;SDS011;4589;48.690;8.952;2023-04-03T15:45:51;3.73;;;2.50;;
9106;SDS011;4589;48.690;8.952;2023-04-03T15:48:17;3.70;;;3.30;;
9106;SDS011;4589;48.690;8.952;2023-04-03T15:50:44;4.13;;;2.63;;
9106;SDS011;4589;48.690;8.952;2023-04-03T15:53:10;3.33;;;2.23;;
9106;SDS011;4589;48.690;8.952;2023-04-03T15:55:37;2.70;;;2.50;;
9106;SDS011;4589;48.690;8.952;2023-04-03T15:58:03;3.83;;;2.40;;
9106;SDS011;4589;48.690;8.952;2023-04-03T16:00:29;3.50;;;2.57;;
9106;SDS011;4589;48.690;8.952;2023-04-03T16:02:58;2.80;;;2.53;;
9106;SDS011;4589;48.690;8.952;2023-04-03T16:05:26;4.17;;;2.27;;
9106;SDS011;4589;48.690;8.952;2023-04-03T16:07:52;2.60;;;2.33;;
9106;SDS011;4589;48.690;8.952;2023-04-03T16:10:19;3.57;;;2.10;;
9106;SDS011;4589;48.690;8.952;2023-04-03T16:12:46;2.93;;;2.37;;
9106;SDS011;4589;48.690;8.952;2023-04-03T16:15:11;3.70;;;2.43;;
9106;SDS011;4589;48.690;8.952;2023-04-03T16:17:37;2.63;;;2.40;;
9106;SDS011;4589;48.690;8.952;2023-04-03T16:20:06;4.60;;;2.10;;
9106;SDS011;4589;48.690;8.952;2023-04-03T16:22:32;2.30;;;2.10;;
9106;SDS011;4589;48.690;8.952;2023-04-03T16:24:58;3.57;;;2.50;;
9106;SDS011;4589;48.690;8.952;2023-04-03T16:27:23;3.43;;;2.87;;
9106;SDS011;4589;48.690;8.952;2023-04-03T16:29:55;4.53;;;2.47;;
9106;SDS011;4589;48.690;8.952;2023-04-03T16:32:25;2.50;;;2.30;;
9106;SDS011;4589;48.690;8.952;2023-04-03T16:34:54;2.90;;;2.50;;
9106;SDS011;4589;48.690;8.952;2023-04-03T16:37:20;5.33;;;2.80;;
9106;SDS011;4589;48.690;8.952;2023-04-03T16:39:46;7.90;;;3.00;;
9106;SDS011;4589;48.690;8.952;2023-04-03T16:42:12;2.83;;;2.57;;
9106;SDS011;4589;48.690;8.952;2023-04-03T16:44:38;3.07;;;2.70;;
9106;SDS011;4589;48.690;8.952;2023-04-03T16:47:04;2.90;;;2.43;;
9106;SDS011;4589;48.690;8.952;2023-04-03T16:49:30;4.00;;;2.20;;
9106;SDS011;4589;48.690;8.952;2023-04-03T16:51:58;3.20;;;2.70;;
9106;SDS011;4589;48.690;8.952;2023-04-03T16:54:25;2.93;;;2.13;;
9106;SDS011;4589;48.690;8.952;2023-04-03T16:56:51;5.53;;;2.30;;
9106;SDS011;4589;48.690;8.952;2023-04-03T16:59:16;4.60;;;2.67;;
9106;SDS011;4589;48.690;8.952;2023-04-03T17:01:43;2.40;;;2.13;;
9106;SDS011;4589;48.690;8.952;2023-04-03T17:04:09;4.97;;;2.73;;
9106;SDS011;4589;48.690;8.952;2023-04-03T17:06:35;2.53;;;2.33;;
9106;SDS011;4589;48.690;8.952;2023-04-03T17:09:00;4.30;;;2.70;;
9106;SDS011;4589;48.690;8.952;2023-04-03T17:11:27;3.47;;;3.17;;
9106;SDS011;4589;48.690;8.952;2023-04-03T17:13:53;5.37;;;3.60;;